Time;durP1;ratioP1;P1;durP2;ratioP2;P2;SDS_P1;SDS_P2;PMS_P1;PMS_P2;Temp;Humidity;BMP_temperature;BMP_pressure;BME280_temperature;BME280_humidity;BME280_pressure;Samples;Min_cycle;Max_cycle;Signal;HPM_P1;HPM_P2
2022/12/19 00:02:05;;;;;;;33.35;30.48;;;;;;;;;;5093710;28;20272;-77
2022/12/19 00:04:33;;;;;;;35.15;31.65;;;;;;;;;;5093359;28;20215;-78
2022/12/19 00:07:00;;;;;;;37.92;33.97;;;;;;;;;;5093811;28;20230;-77
2022/12/19 00:09:28;;;;;;;39.78;35.60;;;;;;;;;;5093659;28;20221;-77
2022/12/19 00:11:55;;;;;;;38.35;33.80;;;;;;;;;;5093958;28;20244;-78
2022/12/19 00:14:24;;;;;;;37.25;33.33;;;;;;;;;;5092936;28;20211;-77
2022/12/19 00:16:51;;;;;;;35.72;32.00;;;;;;;;;;5093810;28;20234;-79
2022/12/19 00:19:18;;;;;;;37.40;33.63;;;;;;;;;;5093766;28;20203;-78
2022/12/19 00:21:45;;;;;;;36.80;32.85;;;;;;;;;;5093659;28;20717;-77
2022/12/19 00:24:12;;;;;;;38.13;33.95;;;;;;;;;;5093094;28;20225;-78
2022/12/19 00:26:39;;;;;;;33.05;30.00;;;;;;;;;;5093814;28;20227;-77
2022/12/19 00:29:07;;;;;;;32.60;29.55;;;;;;;;;;5092801;28;20225;-78
2022/12/19 00:31:37;;;;;;;38.03;33.17;;;;;;;;;;5093469;28;20241;-78
2022/12/19 00:34:04;;;;;;;38.70;34.03;;;;;;;;;;5092982;28;20210;-78
2022/12/19 00:36:33;;;;;;;28.00;25.98;;;;;;;;;;5093340;28;20235;-78
2022/12/19 00:39:00;;;;;;;34.85;31.30;;;;;;;;;;5093602;28;20204;-78
2022/12/19 00:41:29;;;;;;;32.83;29.23;;;;;;;;;;5093389;28;20211;-77
2022/12/19 00:43:57;;;;;;;37.08;33.20;;;;;;;;;;5092359;28;20215;-77
2022/12/19 00:46:24;;;;;;;45.95;37.47;;;;;;;;;;5093120;28;20238;-78
2022/12/19 00:48:52;;;;;;;38.13;34.03;;;;;;;;;;5093269;28;20207;-77
2022/12/19 00:51:20;;;;;;;35.92;32.15;;;;;;;;;;5093181;28;20207;-78
2022/12/19 00:53:48;;;;;;;37.97;31.17;;;;;;;;;;5092267;28;20200;-77
2022/12/19 00:56:16;;;;;;;37.58;33.22;;;;;;;;;;5092778;28;20698;-77
2022/12/19 00:58:44;;;;;;;36.25;32.42;;;;;;;;;;5093120;28;20214;-77
2022/12/19 01:01:12;;;;;;;35.42;31.90;;;;;;;;;;5093489;28;20207;-78
2022/12/19 01:03:40;;;;;;;36.75;33.05;;;;;;;;;;5092557;28;20222;-78
2022/12/19 01:06:09;;;;;;;27.25;25.25;;;;;;;;;;5093073;28;20593;-77
2022/12/19 01:08:36;;;;;;;31.05;28.13;;;;;;;;;;5093033;28;20198;-78
2022/12/19 01:11:04;;;;;;;35.80;32.25;;;;;;;;;;5093045;28;20237;-77
2022/12/19 01:13:31;;;;;;;36.85;33.20;;;;;;;;;;5092558;28;20203;-78
2022/12/19 01:16:02;;;;;;;36.88;32.70;;;;;;;;;;5092965;28;20222;-77
2022/12/19 01:18:29;;;;;;;31.05;27.77;;;;;;;;;;5093066;28;20187;-77
2022/12/19 01:20:59;;;;;;;39.55;33.05;;;;;;;;;;5092842;28;20203;-77
2022/12/19 01:23:28;;;;;;;35.00;31.58;;;;;;;;;;5092043;28;20757;-78
2022/12/19 01:25:55;;;;;;;37.28;33.28;;;;;;;;;;5092869;28;20222;-76
2022/12/19 01:28:23;;;;;;;37.22;32.97;;;;;;;;;;5092975;28;20203;-77
2022/12/19 01:30:50;;;;;;;37.47;31.67;;;;;;;;;;5092796;28;20236;-77
2022/12/19 01:33:19;;;;;;;34.60;30.90;;;;;;;;;;5092342;28;20207;-77
2022/12/19 01:35:47;;;;;;;29.88;27.00;;;;;;;;;;5092457;28;20234;-77
2022/12/19 01:38:14;;;;;;;39.65;34.42;;;;;;;;;;5092793;28;20210;-77
2022/12/19 01:40:49;;;;;;;34.05;30.48;;;;;;;;;;5092764;28;20206;-78
2022/12/19 01:43:16;;;;;;;36.70;33.00;;;;;;;;;;5091807;28;20229;-77
2022/12/19 01:45:43;;;;;;;35.65;31.85;;;;;;;;;;5096631;28;20314;-77
2022/12/19 01:48:16;;;;;;;38.60;34.40;;;;;;;;;;5096655;28;20207;-77
2022/12/19 01:50:46;;;;;;;38.22;34.15;;;;;;;;;;5096583;28;20203;-79
2022/12/19 01:53:14;;;;;;;37.00;31.38;;;;;;;;;;5096058;28;20223;-79
2022/12/19 01:55:43;;;;;;;38.75;33.85;;;;;;;;;;5096489;28;20231;-78
2022/12/19 01:58:11;;;;;;;35.60;32.38;;;;;;;;;;5096246;28;20191;-78
2022/12/19 02:00:38;;;;;;;37.38;33.25;;;;;;;;;;5096060;28;20697;-77
2022/12/19 02:03:07;;;;;;;37.70;33.50;;;;;;;;;;5095518;28;20221;-77
2022/12/19 02:05:34;;;;;;;32.00;28.90;;;;;;;;;;5096182;28;20627;-77
2022/12/19 02:08:02;;;;;;;38.42;32.90;;;;;;;;;;5096227;28;20217;-78
2022/12/19 02:10:29;;;;;;;34.13;30.67;;;;;;;;;;5096234;28;20208;-77
2022/12/19 02:12:57;;;;;;;30.80;27.80;;;;;;;;;;5096002;28;20221;-78
2022/12/19 02:15:27;;;;;;;36.65;32.40;;;;;;;;;;5096078;28;20200;-78
2022/12/19 02:18:01;;;;;;;39.30;32.83;;;;;;;;;;5096198;28;20210;-77
2022/12/19 02:20:40;;;;;;;36.90;32.38;;;;;;;;;;5095772;28;20187;-76
2022/12/19 02:23:20;;;;;;;35.92;31.85;;;;;;;;;;5095258;28;20213;-78
2022/12/19 02:26:01;;;;;;;34.58;30.88;;;;;;;;;;5095995;28;20228;-77
2022/12/19 02:28:43;;;;;;;35.17;31.23;;;;;;;;;;5095937;28;20187;-77
2022/12/19 02:31:14;;;;;;;38.67;34.50;;;;;;;;;;5095912;28;20191;-77
2022/12/19 02:33:42;;;;;;;35.42;31.73;;;;;;;;;;5095611;28;20191;-78
2022/12/19 02:36:13;;;;;;;35.63;32.00;;;;;;;;;;5095337;28;20227;-77
2022/12/19 02:38:42;;;;;;;35.67;31.75;;;;;;;;;;5095802;28;20195;-77
2022/12/19 02:41:14;;;;;;;34.10;30.17;;;;;;;;;;5095700;28;20213;-78
2022/12/19 02:43:43;;;;;;;33.13;29.63;;;;;;;;;;5094506;28;20716;-77
2022/12/19 02:46:10;;;;;;;38.38;32.90;;;;;;;;;;5095453;28;20310;-77
2022/12/19 02:48:39;;;;;;;36.85;31.80;;;;;;;;;;5095663;28;20204;-79
2022/12/19 02:51:06;;;;;;;37.17;33.25;;;;;;;;;;5095159;28;20207;-78
2022/12/19 02:53:33;;;;;;;35.05;31.35;;;;;;;;;;5094938;28;20272;-78
2022/12/19 02:56:17;;;;;;;36.05;32.20;;;;;;;;;;5094242;28;20234;-79
2022/12/19 02:58:47;;;;;;;38.35;34.35;;;;;;;;;;5095669;28;20192;-77
2022/12/19 03:01:18;;;;;;;39.15;33.10;;;;;;;;;;5095422;28;20187;-77
2022/12/19 03:03:54;;;;;;;39.13;32.90;;;;;;;;;;5095199;28;20211;-78
2022/12/19 03:06:25;;;;;;;33.33;29.75;;;;;;;;;;5095227;28;20241;-78
2022/12/19 03:08:56;;;;;;;36.13;32.22;;;;;;;;;;5095488;28;20241;-77
2022/12/19 03:11:23;;;;;;;37.70;33.72;;;;;;;;;;5095068;28;20644;-78
2022/12/19 03:13:54;;;;;;;37.45;32.75;;;;;;;;;;5094415;28;20202;-77
2022/12/19 03:16:21;;;;;;;38.40;34.20;;;;;;;;;;5095021;28;20226;-78
2022/12/19 03:18:50;;;;;;;36.60;32.72;;;;;;;;;;5095063;28;20191;-77
2022/12/19 03:21:21;;;;;;;35.50;31.75;;;;;;;;;;5094813;28;20207;-77
2022/12/19 03:23:48;;;;;;;38.38;31.95;;;;;;;;;;5094352;28;20604;-78
2022/12/19 03:26:18;;;;;;;37.47;33.35;;;;;;;;;;5094592;28;20299;-78
2022/12/19 03:28:47;;;;;;;36.35;32.40;;;;;;;;;;5094727;28;20293;-77
2022/12/19 03:31:15;;;;;;;34.92;31.20;;;;;;;;;;5094356;28;20679;-78
2022/12/19 03:33:43;;;;;;;32.40;29.23;;;;;;;;;;5093743;28;20248;-78
2022/12/19 03:36:13;;;;;;;34.42;31.10;;;;;;;;;;5094478;28;20224;-79
2022/12/19 03:38:41;;;;;;;36.28;32.53;;;;;;;;;;5094319;28;20195;-78
2022/12/19 03:41:09;;;;;;;36.95;32.92;;;;;;;;;;5094155;28;20204;-78
2022/12/19 03:43:36;;;;;;;35.65;31.85;;;;;;;;;;5093649;28;20267;-78
2022/12/19 03:46:06;;;;;;;38.35;32.35;;;;;;;;;;5094174;28;20248;-78
2022/12/19 03:48:37;;;;;;;33.75;30.17;;;;;;;;;;5094440;28;20195;-78
2022/12/19 03:51:09;;;;;;;37.33;31.05;;;;;;;;;;5094591;28;20191;-77
2022/12/19 03:53:47;;;;;;;38.35;33.03;;;;;;;;;;5093695;28;20490;-78
2022/12/19 03:56:18;;;;;;;39.72;35.58;;;;;;;;;;5094262;28;20225;-77
2022/12/19 03:58:48;;;;;;;36.38;32.67;;;;;;;;;;5093803;28;20195;-78
2022/12/19 04:01:15;;;;;;;37.53;32.88;;;;;;;;;;5094274;28;20199;-78
2022/12/19 04:03:42;;;;;;;33.47;30.13;;;;;;;;;;5093398;28;20227;-78
2022/12/19 04:06:10;;;;;;;35.50;31.45;;;;;;;;;;5093406;28;20218;-78
2022/12/19 04:08:37;;;;;;;36.22;32.58;;;;;;;;;;5093918;28;20206;-77
2022/12/19 04:11:08;;;;;;;37.45;33.25;;;;;;;;;;5093604;28;20663;-78
2022/12/19 04:13:37;;;;;;;37.22;33.33;;;;;;;;;;5093313;28;20209;-78
2022/12/19 04:16:09;;;;;;;36.50;32.58;;;;;;;;;;5093611;28;20215;-78
2022/12/19 04:18:36;;;;;;;34.28;30.75;;;;;;;;;;5093741;28;20192;-77
2022/12/19 04:21:07;;;;;;;36.78;32.42;;;;;;;;;;5093749;28;20206;-78
2022/12/19 04:23:37;;;;;;;37.13;33.20;;;;;;;;;;5093137;28;20215;-78
2022/12/19 04:26:05;;;;;;;33.33;29.98;;;;;;;;;;5093690;28;20240;-78
2022/12/19 04:28:35;;;;;;;38.63;34.50;;;;;;;;;;5093641;28;20207;-77
2022/12/19 04:31:03;;;;;;;38.22;33.08;;;;;;;;;;5093458;28;20203;-78
2022/12/19 04:33:30;;;;;;;36.38;31.75;;;;;;;;;;5093110;28;20413;-78
2022/12/19 04:35:57;;;;;;;31.38;28.45;;;;;;;;;;5093648;28;20234;-77
2022/12/19 04:38:24;;;;;;;35.25;31.73;;;;;;;;;;5093620;28;20600;-78
2022/12/19 04:40:51;;;;;;;36.42;32.90;;;;;;;;;;5093543;28;20211;-78
2022/12/19 04:43:18;;;;;;;36.88;32.92;;;;;;;;;;5092470;28;20617;-77
2022/12/19 04:45:46;;;;;;;35.35;31.75;;;;;;;;;;5093531;28;20223;-78
2022/12/19 04:48:14;;;;;;;38.08;34.15;;;;;;;;;;5093215;28;20199;-78
2022/12/19 04:50:41;;;;;;;40.97;34.90;;;;;;;;;;5093356;28;20235;-78
2022/12/19 04:53:08;;;;;;;40.72;33.00;;;;;;;;;;5092692;28;20209;-77
2022/12/19 04:55:35;;;;;;;38.50;34.55;;;;;;;;;;5092954;28;20313;-77
2022/12/19 04:58:04;;;;;;;39.22;34.45;;;;;;;;;;5093159;28;20211;-77
2022/12/19 05:00:31;;;;;;;38.78;34.10;;;;;;;;;;5093183;28;20207;-77
2022/12/19 05:02:59;;;;;;;33.17;29.58;;;;;;;;;;5092852;28;20231;-78
2022/12/19 05:05:26;;;;;;;32.83;29.88;;;;;;;;;;5093388;28;20203;-78
2022/12/19 05:07:53;;;;;;;39.35;34.03;;;;;;;;;;5093137;28;20208;-78
2022/12/19 05:10:20;;;;;;;38.28;34.28;;;;;;;;;;5093014;28;20215;-77
2022/12/19 05:12:48;;;;;;;38.25;34.20;;;;;;;;;;5092720;28;20662;-78
2022/12/19 05:15:15;;;;;;;37.67;33.70;;;;;;;;;;5092587;28;20250;-77
2022/12/19 05:17:42;;;;;;;35.65;32.10;;;;;;;;;;5092849;28;20214;-78
2022/12/19 05:20:11;;;;;;;38.38;33.78;;;;;;;;;;5096401;28;20208;-77
2022/12/19 05:22:38;;;;;;;33.83;29.33;;;;;;;;;;5097181;28;20234;-77
2022/12/19 05:25:05;;;;;;;41.30;35.90;;;;;;;;;;5096372;28;20287;-78
2022/12/19 05:27:32;;;;;;;32.83;29.55;;;;;;;;;;5096974;28;20214;-76
2022/12/19 05:30:00;;;;;;;39.20;34.55;;;;;;;;;;5097229;28;20191;-77
2022/12/19 05:32:30;;;;;;;42.00;37.70;;;;;;;;;;5096917;28;20324;-77
2022/12/19 05:34:57;;;;;;;38.40;34.30;;;;;;;;;;5096441;28;20242;-77
2022/12/19 05:37:25;;;;;;;32.97;29.90;;;;;;;;;;5096918;28;20275;-77
2022/12/19 05:39:52;;;;;;;37.05;32.35;;;;;;;;;;5096813;28;20215;-77
2022/12/19 05:42:19;;;;;;;40.95;36.35;;;;;;;;;;5095870;28;20212;-78
2022/12/19 05:44:47;;;;;;;38.05;33.95;;;;;;;;;;5095702;28;20237;-78
2022/12/19 05:47:14;;;;;;;40.33;34.88;;;;;;;;;;5096727;28;20245;-78
2022/12/19 05:49:41;;;;;;;37.97;33.92;;;;;;;;;;5096345;28;20218;-77
2022/12/19 05:52:08;;;;;;;39.20;35.30;;;;;;;;;;5096578;28;20203;-78
2022/12/19 05:54:36;;;;;;;43.25;35.05;;;;;;;;;;5095975;28;20206;-78
2022/12/19 05:57:03;;;;;;;39.60;35.47;;;;;;;;;;5096386;28;20224;-77
2022/12/19 05:59:30;;;;;;;39.90;35.65;;;;;;;;;;5096689;28;20216;-77
2022/12/19 06:01:58;;;;;;;38.10;34.08;;;;;;;;;;5095616;28;20211;-77
2022/12/19 06:04:25;;;;;;;41.75;37.40;;;;;;;;;;5095680;28;20224;-78
2022/12/19 06:06:52;;;;;;;43.85;38.60;;;;;;;;;;5095918;28;20219;-78
2022/12/19 06:09:19;;;;;;;43.60;37.22;;;;;;;;;;5096289;28;20594;-77
2022/12/19 06:11:47;;;;;;;45.60;39.83;;;;;;;;;;5096251;28;20208;-78
2022/12/19 06:14:14;;;;;;;46.92;40.17;;;;;;;;;;5095424;28;20203;-77
2022/12/19 06:16:41;;;;;;;40.72;36.50;;;;;;;;;;5096002;28;20227;-78
2022/12/19 06:19:09;;;;;;;38.63;32.95;;;;;;;;;;5096211;28;20229;-78
2022/12/19 06:21:36;;;;;;;47.28;36.90;;;;;;;;;;5095994;28;20260;-77
2022/12/19 06:24:03;;;;;;;37.70;32.38;;;;;;;;;;5095212;28;20223;-77
2022/12/19 06:26:30;;;;;;;44.67;36.35;;;;;;;;;;5095805;28;20227;-79
2022/12/19 06:28:59;;;;;;;42.67;37.38;;;;;;;;;;5095864;28;20212;-77
2022/12/19 06:31:26;;;;;;;43.15;36.85;;;;;;;;;;5095551;28;20295;-77
2022/12/19 06:33:53;;;;;;;41.15;33.00;;;;;;;;;;5095225;28;20203;-78
2022/12/19 06:36:21;;;;;;;41.83;37.10;;;;;;;;;;5095710;28;20230;-77
2022/12/19 06:38:49;;;;;;;40.80;36.35;;;;;;;;;;5095742;28;20210;-78
2022/12/19 06:44:04;;;;;;;39.90;34.80;;;;;;;;;;5094885;28;20353;-77
2022/12/19 06:46:31;;;;;;;42.05;37.10;;;;;;;;;;5095346;28;20667;-78
2022/12/19 06:48:58;;;;;;;39.65;35.20;;;;;;;;;;5095129;28;20663;-77
2022/12/19 06:51:25;;;;;;;41.90;34.40;;;;;;;;;;5095489;28;20571;-77
2022/12/19 06:53:53;;;;;;;36.35;30.02;;;;;;;;;;5094684;28;20243;-78
2022/12/19 06:56:20;;;;;;;34.45;30.85;;;;;;;;;;5095003;28;20706;-78
2022/12/19 06:58:47;;;;;;;41.03;36.72;;;;;;;;;;5095308;28;20210;-77
2022/12/19 07:01:18;;;;;;;47.20;37.50;;;;;;;;;;5094068;28;20286;-78
2022/12/19 07:03:49;;;;;;;43.40;37.95;;;;;;;;;;5104813;28;20201;-78
2022/12/19 07:06:16;;;;;;;33.00;30.02;;;;;;;;;;5115306;28;20226;-78
2022/12/19 07:08:43;;;;;;;40.10;35.90;;;;;;;;;;5115177;28;20210;-77
2022/12/19 07:11:10;;;;;;;39.80;35.63;;;;;;;;;;5115175;28;20212;-78
2022/12/19 07:13:37;;;;;;;48.45;38.33;;;;;;;;;;5115206;28;20214;-77
2022/12/19 07:16:05;;;;;;;43.17;38.58;;;;;;;;;;5114533;28;20568;-77
2022/12/19 07:18:36;;;;;;;38.78;34.35;;;;;;;;;;5115491;28;20213;-77
2022/12/19 07:21:03;;;;;;;46.72;38.65;;;;;;;;;;5115372;28;20187;-77
2022/12/19 07:23:30;;;;;;;43.65;37.63;;;;;;;;;;5114945;28;20216;-78
2022/12/19 07:25:57;;;;;;;45.17;36.55;;;;;;;;;;5114548;28;20241;-78
2022/12/19 07:28:25;;;;;;;45.83;39.00;;;;;;;;;;5115223;28;20203;-78
2022/12/19 07:30:52;;;;;;;47.15;38.83;;;;;;;;;;5115019;28;20210;-78
2022/12/19 07:33:19;;;;;;;48.03;38.47;;;;;;;;;;5114875;28;20296;-78
2022/12/19 07:35:47;;;;;;;44.60;37.83;;;;;;;;;;5115108;28;20227;-79
2022/12/19 07:38:14;;;;;;;44.60;38.67;;;;;;;;;;5114489;28;20206;-79
2022/12/19 07:40:41;;;;;;;41.33;36.85;;;;;;;;;;5115034;28;20213;-77
2022/12/19 07:43:08;;;;;;;44.88;38.15;;;;;;;;;;5114168;28;20205;-78
2022/12/19 07:45:37;;;;;;;42.58;37.92;;;;;;;;;;5114980;28;20773;-79
2022/12/19 07:48:04;;;;;;;45.90;37.65;;;;;;;;;;5114265;28;20206;-79
2022/12/19 07:50:32;;;;;;;42.75;35.88;;;;;;;;;;5115200;28;20214;-77
2022/12/19 07:53:00;;;;;;;46.45;38.05;;;;;;;;;;5114485;28;20209;-80
2022/12/19 07:55:27;;;;;;;45.05;37.60;;;;;;;;;;5114912;28;20226;-79
2022/12/19 07:57:55;;;;;;;43.00;37.70;;;;;;;;;;5114096;28;20293;-79
2022/12/19 08:00:22;;;;;;;42.70;36.53;;;;;;;;;;5114946;28;20245;-77
2022/12/19 08:02:49;;;;;;;50.80;39.70;;;;;;;;;;5115297;28;20205;-79
2022/12/19 08:05:16;;;;;;;40.42;36.03;;;;;;;;;;5114584;28;20600;-79
2022/12/19 08:07:43;;;;;;;45.38;38.63;;;;;;;;;;5115040;28;20214;-79
2022/12/19 08:10:13;;;;;;;49.78;39.10;;;;;;;;;;5114852;28;20674;-78
2022/12/19 08:12:40;;;;;;;47.22;38.00;;;;;;;;;;5114345;28;20297;-78
2022/12/19 08:15:08;;;;;;;43.78;38.92;;;;;;;;;;5113773;28;20199;-79
2022/12/19 08:17:35;;;;;;;42.55;38.08;;;;;;;;;;5114614;28;20203;-78
2022/12/19 08:20:02;;;;;;;45.88;38.50;;;;;;;;;;5114184;28;20300;-78
2022/12/19 08:22:29;;;;;;;42.60;38.08;;;;;;;;;;5114625;28;20211;-77
2022/12/19 08:24:57;;;;;;;43.03;38.60;;;;;;;;;;5113421;28;20584;-78
2022/12/19 08:27:25;;;;;;;43.95;38.40;;;;;;;;;;5112840;28;20290;-78
2022/12/19 08:29:52;;;;;;;42.78;36.45;;;;;;;;;;5113182;28;20944;-77
2022/12/19 08:32:20;;;;;;;39.40;35.50;;;;;;;;;;5113382;28;20217;-79
2022/12/19 08:34:47;;;;;;;42.30;37.72;;;;;;;;;;5112974;28;20767;-77
2022/12/19 08:37:14;;;;;;;40.85;36.92;;;;;;;;;;5113813;28;20225;-78
2022/12/19 08:39:41;;;;;;;46.28;40.30;;;;;;;;;;5113952;28;20198;-77
2022/12/19 08:42:08;;;;;;;44.42;39.80;;;;;;;;;;5113917;28;20206;-79
2022/12/19 08:44:37;;;;;;;45.90;40.70;;;;;;;;;;5112467;28;20244;-77
2022/12/19 08:47:04;;;;;;;42.22;37.63;;;;;;;;;;5113870;28;20226;-78
2022/12/19 08:49:31;;;;;;;40.67;36.22;;;;;;;;;;5113366;28;20204;-77
2022/12/19 08:51:58;;;;;;;36.60;33.50;;;;;;;;;;5114113;28;20208;-79
2022/12/19 08:54:25;;;;;;;40.38;35.97;;;;;;;;;;5110786;28;20236;-77
2022/12/19 08:56:53;;;;;;;43.88;37.53;;;;;;;;;;5113150;28;20232;-76
2022/12/19 08:59:20;;;;;;;43.33;38.35;;;;;;;;;;5113961;28;20211;-78
2022/12/19 09:01:48;;;;;;;44.08;38.17;;;;;;;;;;5115134;28;20215;-78
2022/12/19 09:04:15;;;;;;;40.05;35.75;;;;;;;;;;5119065;28;20221;-81
2022/12/19 09:06:42;;;;;;;40.22;36.15;;;;;;;;;;5116126;28;20231;-79
2022/12/19 09:09:09;;;;;;;40.08;36.13;;;;;;;;;;5114573;28;20555;-78
2022/12/19 09:11:36;;;;;;;41.55;37.40;;;;;;;;;;5114837;28;20256;-79
2022/12/19 09:14:04;;;;;;;41.42;37.20;;;;;;;;;;5117152;28;20199;-81
2022/12/19 09:16:31;;;;;;;39.20;35.50;;;;;;;;;;5118326;28;20707;-80
2022/12/19 09:19:00;;;;;;;37.47;34.25;;;;;;;;;;5116879;28;20203;-79
2022/12/19 09:21:28;;;;;;;37.22;33.92;;;;;;;;;;5114273;28;20202;-78
2022/12/19 09:23:56;;;;;;;39.17;35.72;;;;;;;;;;5113370;28;20197;-77
2022/12/19 09:26:24;;;;;;;38.40;34.63;;;;;;;;;;5115345;28;20269;-80
2022/12/19 09:28:52;;;;;;;37.80;34.47;;;;;;;;;;5117683;28;20624;-80
2022/12/19 09:31:20;;;;;;;39.78;36.15;;;;;;;;;;5117617;28;20207;-81
2022/12/19 09:33:47;;;;;;;39.20;35.33;;;;;;;;;;5114313;28;20203;-79
2022/12/19 09:36:17;;;;;;;39.10;35.30;;;;;;;;;;5114258;28;20230;-77
2022/12/19 09:38:44;;;;;;;37.88;33.90;;;;;;;;;;5115208;28;20210;-79
2022/12/19 09:41:24;;;;;;;37.10;33.70;;;;;;;;;;5114250;28;20208;-79
2022/12/19 09:44:00;;;;;;;38.28;34.50;;;;;;;;;;5115018;28;20216;-87
2022/12/19 09:46:34;;;;;;;36.80;33.70;;;;;;;;;;5117279;28;20234;-79
2022/12/19 09:49:01;;;;;;;38.25;34.85;;;;;;;;;;5115551;28;20540;-79
2022/12/19 09:51:34;;;;;;;37.22;33.95;;;;;;;;;;5118394;28;20199;-77
2022/12/19 09:54:05;;;;;;;38.70;35.30;;;;;;;;;;5117218;28;20204;-78
2022/12/19 09:56:33;;;;;;;37.83;34.67;;;;;;;;;;5112548;28;20227;-77
2022/12/19 09:59:04;;;;;;;37.88;34.38;;;;;;;;;;5113312;28;20214;-77
2022/12/19 10:01:32;;;;;;;38.22;35.08;;;;;;;;;;5113067;28;20184;-76
2022/12/19 10:04:00;;;;;;;33.75;31.02;;;;;;;;;;5112126;28;20213;-78
2022/12/19 10:06:29;;;;;;;37.35;34.45;;;;;;;;;;5117131;28;20227;-77
2022/12/19 10:08:57;;;;;;;38.67;35.28;;;;;;;;;;5117672;28;20212;-77
2022/12/19 10:11:31;;;;;;;40.95;37.35;;;;;;;;;;5117340;28;20210;-77
2022/12/19 10:14:10;;;;;;;36.97;33.90;;;;;;;;;;5117137;28;20187;-78
2022/12/19 10:16:42;;;;;;;39.72;36.08;;;;;;;;;;5116864;28;20229;-77
2022/12/19 10:19:10;;;;;;;37.88;34.55;;;;;;;;;;5116889;28;20537;-77
2022/12/19 10:21:40;;;;;;;41.00;37.22;;;;;;;;;;5116654;28;20671;-78
2022/12/19 10:24:18;;;;;;;39.03;35.92;;;;;;;;;;5116416;28;20202;-78
2022/12/19 10:26:50;;;;;;;39.00;35.58;;;;;;;;;;5116030;28;20255;-76
2022/12/19 10:29:39;;;;;;;42.63;38.83;;;;;;;;;;5116481;28;20199;-77
2022/12/19 10:32:08;;;;;;;39.55;36.25;;;;;;;;;;5115694;28;20207;-77
2022/12/19 10:34:37;;;;;;;40.83;36.83;;;;;;;;;;5115908;28;20203;-76
2022/12/19 10:37:12;;;;;;;38.58;35.38;;;;;;;;;;5116202;28;20224;-76
2022/12/19 10:39:47;;;;;;;40.45;37.15;;;;;;;;;;5116118;28;20212;-77
2022/12/19 10:42:17;;;;;;;38.40;35.10;;;;;;;;;;5116382;28;20191;-76
2022/12/19 10:44:46;;;;;;;39.13;35.72;;;;;;;;;;5115383;28;20214;-78
2022/12/19 10:47:15;;;;;;;39.05;36.15;;;;;;;;;;5116073;28;20258;-76
2022/12/19 10:49:42;;;;;;;38.63;35.53;;;;;;;;;;5116169;28;20215;-76
2022/12/19 10:52:11;;;;;;;37.17;33.88;;;;;;;;;;5115898;28;20203;-77
2022/12/19 10:54:40;;;;;;;38.80;35.70;;;;;;;;;;5094821;28;20204;-74
2022/12/19 10:57:20;;;;;;;37.20;34.53;;;;;;;;;;5095281;28;20782;-76
2022/12/19 10:59:54;;;;;;;39.13;36.03;;;;;;;;;;5095860;28;20191;-76
2022/12/19 11:02:27;;;;;;;37.15;33.83;;;;;;;;;;5095432;28;20184;-77
2022/12/19 11:04:54;;;;;;;38.15;35.28;;;;;;;;;;5094748;28;20196;-77
2022/12/19 11:07:21;;;;;;;35.15;32.42;;;;;;;;;;5095184;28;20281;-76
2022/12/19 11:09:48;;;;;;;37.47;34.28;;;;;;;;;;5095024;28;20218;-77
2022/12/19 11:12:17;;;;;;;35.95;33.15;;;;;;;;;;5095286;28;20208;-77
2022/12/19 11:14:52;;;;;;;37.15;34.35;;;;;;;;;;5094713;28;20297;-77
2022/12/19 11:17:26;;;;;;;36.20;32.97;;;;;;;;;;5093411;28;20227;-78
2022/12/19 11:19:53;;;;;;;36.15;32.97;;;;;;;;;;5095120;28;20202;-77
2022/12/19 11:22:23;;;;;;;36.13;33.33;;;;;;;;;;5094984;28;20204;-77
2022/12/19 11:24:51;;;;;;;34.13;31.70;;;;;;;;;;5094770;28;20599;-77
2022/12/19 11:27:32;;;;;;;35.78;33.10;;;;;;;;;;5094270;28;20229;-76
2022/12/19 11:30:01;;;;;;;36.58;33.53;;;;;;;;;;5094957;28;20216;-76
2022/12/19 11:32:32;;;;;;;35.47;32.15;;;;;;;;;;5095747;28;20213;-78
2022/12/19 11:35:01;;;;;;;33.80;31.33;;;;;;;;;;5094640;28;20210;-76
2022/12/19 11:37:33;;;;;;;34.10;31.55;;;;;;;;;;5093493;28;20218;-77
2022/12/19 11:40:04;;;;;;;32.80;30.30;;;;;;;;;;5094478;28;20190;-77
2022/12/19 11:42:33;;;;;;;33.63;31.23;;;;;;;;;;5094378;28;20223;-76
2022/12/19 11:45:06;;;;;;;32.35;30.05;;;;;;;;;;5092903;28;20212;-76
2022/12/19 11:47:36;;;;;;;33.60;31.02;;;;;;;;;;5094319;28;20196;-78
2022/12/19 11:50:09;;;;;;;33.05;30.25;;;;;;;;;;5094311;28;20617;-76
2022/12/19 11:52:41;;;;;;;35.10;32.25;;;;;;;;;;5094146;28;20192;-77
2022/12/19 11:55:15;;;;;;;34.10;31.48;;;;;;;;;;5093644;28;20225;-78
2022/12/19 11:57:42;;;;;;;32.70;30.40;;;;;;;;;;5094077;28;20676;-77
2022/12/19 12:00:14;;;;;;;36.33;33.38;;;;;;;;;;5094400;28;20216;-77
2022/12/19 12:02:51;;;;;;;35.63;32.70;;;;;;;;;;5094223;28;20201;-77
2022/12/19 12:05:40;;;;;;;34.67;31.83;;;;;;;;;;5094001;28;20299;-76
2022/12/19 12:08:18;;;;;;;33.05;30.65;;;;;;;;;;5094311;28;20190;-76
2022/12/19 12:10:51;;;;;;;35.70;32.88;;;;;;;;;;5094078;28;20193;-77
2022/12/19 12:13:21;;;;;;;34.03;31.40;;;;;;;;;;5093340;28;20197;-76
2022/12/19 12:15:51;;;;;;;34.40;31.77;;;;;;;;;;5092462;28;20685;-76
2022/12/19 12:18:26;;;;;;;34.53;31.55;;;;;;;;;;5094121;28;20688;-76
2022/12/19 12:20:59;;;;;;;32.97;30.57;;;;;;;;;;5093844;28;20198;-77
2022/12/19 12:23:29;;;;;;;34.30;31.70;;;;;;;;;;5092989;28;20439;-78
2022/12/19 12:26:02;;;;;;;34.30;31.48;;;;;;;;;;5093246;28;20992;-77
2022/12/19 12:28:46;;;;;;;33.37;30.70;;;;;;;;;;5093483;28;20189;-77
2022/12/19 12:31:18;;;;;;;33.10;30.40;;;;;;;;;;5077855;28;20493;-80
2022/12/19 12:33:54;;;;;;;35.80;32.88;;;;;;;;;;5093059;28;20666;-76
2022/12/19 12:36:28;;;;;;;35.50;32.37;;;;;;;;;;5093468;28;20228;-78
2022/12/19 12:39:03;;;;;;;35.92;32.80;;;;;;;;;;5093690;28;20402;-77
2022/12/19 12:44:35;;;;;;;33.60;31.20;;;;;;;;;;5030243;28;20318;-76
2022/12/19 12:47:05;;;;;;;37.07;33.33;;;;;;;;;;5030888;28;20594;-78
2022/12/19 12:49:36;;;;;;;35.53;32.80;;;;;;;;;;5060424;28;20456;-77
2022/12/19 12:52:05;;;;;;;35.80;32.60;;;;;;;;;;5093910;28;20190;-77
2022/12/19 12:54:34;;;;;;;39.65;36.25;;;;;;;;;;5092554;28;20455;-78
2022/12/19 12:57:01;;;;;;;33.63;30.92;;;;;;;;;;5093165;28;20229;-79
2022/12/19 12:59:29;;;;;;;36.65;33.55;;;;;;;;;;5093813;28;20284;-77
2022/12/19 13:01:58;;;;;;;36.70;33.17;;;;;;;;;;5093853;28;20213;-77
2022/12/19 13:04:27;;;;;;;38.00;35.10;;;;;;;;;;5095140;28;20231;-76
2022/12/19 13:07:16;;;;;;;37.80;34.58;;;;;;;;;;5103674;28;20257;-86
2022/12/19 13:09:43;;;;;;;37.65;34.45;;;;;;;;;;5116958;28;20193;-89
2022/12/19 13:15:19;;;;;;;36.50;33.67;;;;;;;;;;5121149;28;20206;-85
2022/12/19 13:18:08;;;;;;;38.33;35.08;;;;;;;;;;5115034;28;21000;-77
2022/12/19 13:20:40;;;;;;;34.60;31.80;;;;;;;;;;5111921;28;20195;-75
2022/12/19 13:23:21;;;;;;;36.13;33.00;;;;;;;;;;5112418;28;20204;-75
2022/12/19 13:25:50;;;;;;;37.80;34.40;;;;;;;;;;5113104;28;20224;-77
2022/12/19 13:28:32;;;;;;;35.67;32.78;;;;;;;;;;5113078;28;20440;-75
2022/12/19 13:31:18;;;;;;;37.63;34.23;;;;;;;;;;5111969;28;20203;-75
2022/12/19 13:33:46;;;;;;;36.08;32.85;;;;;;;;;;5111884;28;20449;-75
2022/12/19 13:36:28;;;;;;;35.22;32.22;;;;;;;;;;5113016;28;20224;-77
2022/12/19 13:39:00;;;;;;;36.65;33.25;;;;;;;;;;5112663;28;20216;-77
2022/12/19 13:44:13;;;;;;;38.53;35.03;;;;;;;;;;5116893;28;20607;-75
2022/12/19 13:46:42;;;;;;;33.75;30.95;;;;;;;;;;5116759;28;20228;-76
2022/12/19 13:49:12;;;;;;;34.45;31.65;;;;;;;;;;5116400;28;20574;-75
2022/12/19 13:51:49;;;;;;;35.00;31.83;;;;;;;;;;5117351;28;20204;-77
2022/12/19 13:54:21;;;;;;;35.13;32.07;;;;;;;;;;5116657;28;20208;-78
2022/12/19 13:56:48;;;;;;;37.17;33.57;;;;;;;;;;5117272;28;20437;-78
2022/12/19 13:59:15;;;;;;;34.77;31.67;;;;;;;;;;5116613;28;20429;-75
2022/12/19 14:01:42;;;;;;;32.78;30.00;;;;;;;;;;5116665;28;20433;-75
2022/12/19 14:04:11;;;;;;;34.88;31.73;;;;;;;;;;5116382;28;20214;-78
2022/12/19 14:06:42;;;;;;;32.97;29.92;;;;;;;;;;5117089;28;20239;-77
2022/12/19 14:09:20;;;;;;;35.38;32.00;;;;;;;;;;5117276;28;20208;-79
2022/12/19 14:11:49;;;;;;;33.97;31.03;;;;;;;;;;5117291;28;20199;-75
2022/12/19 14:17:06;;;;;;;38.25;34.85;;;;;;;;;;5118863;28;20224;-80
2022/12/19 14:19:38;;;;;;;34.08;31.08;;;;;;;;;;5122297;28;20189;-83
2022/12/19 14:22:10;;;;;;;35.03;31.60;;;;;;;;;;5121614;28;20189;-85
2022/12/19 14:24:37;;;;;;;33.93;30.93;;;;;;;;;;5117288;28;20200;-75
2022/12/19 14:27:08;;;;;;;32.90;29.90;;;;;;;;;;5120569;28;20506;-82
2022/12/19 14:29:37;;;;;;;33.05;30.02;;;;;;;;;;5121402;28;20794;-82
2022/12/19 14:32:05;;;;;;;34.10;31.10;;;;;;;;;;5122055;28;20617;-82
2022/12/19 14:34:32;;;;;;;33.58;30.48;;;;;;;;;;5120020;28;20454;-80
2022/12/19 14:37:00;;;;;;;33.22;30.42;;;;;;;;;;5116389;28;20232;-76
2022/12/19 14:39:30;;;;;;;32.53;29.48;;;;;;;;;;5116967;28;20217;-77
2022/12/19 14:44:52;;;;;;;33.22;30.30;;;;;;;;;;5115669;28;20946;-78
2022/12/19 14:47:22;;;;;;;34.47;31.40;;;;;;;;;;5115361;28;20228;-77